Sweet Water, Alabama
Current Conditions -  °F | °C
As of 3:35 PM on Tuesday 25 Nov 2014 (Local Time) from KDYA Reporting Station
Clear Clear  
Wind Chill: 54°   Ceiling: Unl
Heat Index: 54°   Visibility: 10mi
Dew Point: 29°   Wind: 8mph
Humidity: 38%   Direction: 300°WNW
Pressure: 30.1"   Gusts: NA
Location:  32.1°N, 87.87°W
Report Text: KDYA 252135Z AUTO 30007KT 10SM CLR 12/M02 A3010 RMK AO2 T01221019
Loading
Personal Weather Stations






























Interactive Weather Map New forecast layout! Learn more

10-Day Weather Forecast

Advertisements
Track Severe Weather on mobile